Glen Cove, Maine
Current Conditions -  °F | °C
As of 11:35 PM on Sunday 25 Jan 2015 (Local Time) from KRKD Reporting Station
Clear Clear  
Wind Chill: -6°   Ceiling: Unl
Heat Index:   Visibility: 10mi
Dew Point: -4°   Wind: 12mph
Humidity: 57%   Direction: 290°WNW
Pressure: 30"   Gusts: NA
Location:  44.13°N, 69.09°W
Report Text: KRKD 260435Z AUTO 29010KT 10SM CLR M13/M20 A3000 RMK AO1
Loading
Personal Weather Stations






























Interactive Weather Map New forecast layout! Learn more

10-Day Weather Forecast

Advertisements
Track Severe Weather on mobile